sensor_id;sensor_type;location;lat;lon;timestamp;P1;durP1;ratioP1;P2;durP2;ratioP2
69906;SDS011;57190;47.918;8.112;2023-07-02T00:01:40;2.58;;;2.42;;
69906;SDS011;57190;47.918;8.112;2023-07-02T00:04:06;2.97;;;2.78;;
69906;SDS011;57190;47.918;8.112;2023-07-02T00:06:33;3.40;;;2.78;;
69906;SDS011;57190;47.918;8.112;2023-07-02T00:09:05;2.33;;;2.22;;
69906;SDS011;57190;47.918;8.112;2023-07-02T00:11:31;2.90;;;2.70;;
69906;SDS011;57190;47.918;8.112;2023-07-02T00:13:57;2.83;;;2.65;;
69906;SDS011;57190;47.918;8.112;2023-07-02T00:16:22;2.58;;;2.47;;
69906;SDS011;57190;47.918;8.112;2023-07-02T00:18:48;2.85;;;2.65;;
69906;SDS011;57190;47.918;8.112;2023-07-02T00:21:20;2.45;;;2.30;;
69906;SDS011;57190;47.918;8.112;2023-07-02T00:23:46;2.67;;;2.47;;
69906;SDS011;57190;47.918;8.112;2023-07-02T00:26:12;2.75;;;2.55;;
69906;SDS011;57190;47.918;8.112;2023-07-02T00:28:38;2.83;;;2.63;;
69906;SDS011;57190;47.918;8.112;2023-07-02T00:31:04;2.90;;;2.70;;
69906;SDS011;57190;47.918;8.112;2023-07-02T00:33:31;2.63;;;2.50;;
69906;SDS011;57190;47.918;8.112;2023-07-02T00:35:57;3.20;;;3.00;;
69906;SDS011;57190;47.918;8.112;2023-07-02T00:38:23;3.03;;;2.83;;
69906;SDS011;57190;47.918;8.112;2023-07-02T00:40:48;2.92;;;2.72;;
69906;SDS011;57190;47.918;8.112;2023-07-02T00:43:14;2.63;;;2.42;;
69906;SDS011;57190;47.918;8.112;2023-07-02T00:45:39;3.13;;;2.03;;
69906;SDS011;57190;47.918;8.112;2023-07-02T00:48:05;2.90;;;2.70;;
69906;SDS011;57190;47.918;8.112;2023-07-02T00:50:31;2.70;;;2.50;;
69906;SDS011;57190;47.918;8.112;2023-07-02T00:52:58;2.95;;;2.75;;
69906;SDS011;57190;47.918;8.112;2023-07-02T00:55:23;2.60;;;2.50;;
69906;SDS011;57190;47.918;8.112;2023-07-02T00:57:50;2.83;;;2.63;;
69906;SDS011;57190;47.918;8.112;2023-07-02T01:00:15;3.90;;;3.60;;
69906;SDS011;57190;47.918;8.112;2023-07-02T01:02:42;3.13;;;2.92;;
69906;SDS011;57190;47.918;8.112;2023-07-02T01:05:13;3.38;;;3.08;;
69906;SDS011;57190;47.918;8.112;2023-07-02T01:07:39;2.88;;;2.67;;
69906;SDS011;57190;47.918;8.112;2023-07-02T01:10:05;3.35;;;3.05;;
69906;SDS011;57190;47.918;8.112;2023-07-02T01:12:31;3.63;;;3.33;;
69906;SDS011;57190;47.918;8.112;2023-07-02T01:14:58;3.28;;;3.08;;
69906;SDS011;57190;47.918;8.112;2023-07-02T01:17:27;3.83;;;3.63;;
69906;SDS011;57190;47.918;8.112;2023-07-02T01:20:02;3.45;;;3.15;;
69906;SDS011;57190;47.918;8.112;2023-07-02T01:22:33;4.32;;;3.92;;
69906;SDS011;57190;47.918;8.112;2023-07-02T01:24:59;4.22;;;3.78;;
69906;SDS011;57190;47.918;8.112;2023-07-02T01:27:27;3.65;;;3.22;;
69906;SDS011;57190;47.918;8.112;2023-07-02T01:29:53;3.63;;;3.00;;
69906;SDS011;57190;47.918;8.112;2023-07-02T01:32:19;3.78;;;3.17;;
69906;SDS011;57190;47.918;8.112;2023-07-02T01:34:45;3.85;;;2.90;;
69906;SDS011;57190;47.918;8.112;2023-07-02T01:37:14;4.10;;;3.80;;
69906;SDS011;57190;47.918;8.112;2023-07-02T01:39:41;3.05;;;2.85;;
69906;SDS011;57190;47.918;8.112;2023-07-02T01:42:14;3.95;;;3.65;;
69906;SDS011;57190;47.918;8.112;2023-07-02T01:44:41;3.63;;;3.15;;
69906;SDS011;57190;47.918;8.112;2023-07-02T01:47:07;3.40;;;3.10;;
69906;SDS011;57190;47.918;8.112;2023-07-02T01:49:33;3.60;;;3.30;;
69906;SDS011;57190;47.918;8.112;2023-07-02T01:51:59;3.20;;;3.00;;
69906;SDS011;57190;47.918;8.112;2023-07-02T01:54:26;3.40;;;3.20;;
69906;SDS011;57190;47.918;8.112;2023-07-02T01:56:52;3.53;;;3.33;;
69906;SDS011;57190;47.918;8.112;2023-07-02T01:59:18;3.78;;;3.47;;
69906;SDS011;57190;47.918;8.112;2023-07-02T02:01:44;3.60;;;3.40;;
69906;SDS011;57190;47.918;8.112;2023-07-02T02:04:10;3.65;;;3.35;;
69906;SDS011;57190;47.918;8.112;2023-07-02T02:06:36;4.50;;;3.13;;
69906;SDS011;57190;47.918;8.112;2023-07-02T02:09:03;3.45;;;3.25;;
69906;SDS011;57190;47.918;8.112;2023-07-02T02:11:29;3.35;;;3.08;;
69906;SDS011;57190;47.918;8.112;2023-07-02T02:13:55;3.17;;;2.97;;
69906;SDS011;57190;47.918;8.112;2023-07-02T02:16:22;3.90;;;3.38;;
69906;SDS011;57190;47.918;8.112;2023-07-02T02:18:48;3.90;;;3.60;;
69906;SDS011;57190;47.918;8.112;2023-07-02T02:21:17;3.50;;;3.20;;
69906;SDS011;57190;47.918;8.112;2023-07-02T02:23:42;3.08;;;2.88;;
69906;SDS011;57190;47.918;8.112;2023-07-02T02:26:08;3.78;;;3.47;;
69906;SDS011;57190;47.918;8.112;2023-07-02T02:28:34;3.83;;;3.47;;
69906;SDS011;57190;47.918;8.112;2023-07-02T02:30:59;4.82;;;3.72;;
69906;SDS011;57190;47.918;8.112;2023-07-02T02:33:25;3.67;;;3.05;;
69906;SDS011;57190;47.918;8.112;2023-07-02T02:35:51;3.35;;;3.15;;
69906;SDS011;57190;47.918;8.112;2023-07-02T02:38:17;5.35;;;3.15;;
69906;SDS011;57190;47.918;8.112;2023-07-02T02:40:43;3.47;;;3.28;;
69906;SDS011;57190;47.918;8.112;2023-07-02T02:43:08;4.65;;;3.90;;
69906;SDS011;57190;47.918;8.112;2023-07-02T02:45:34;3.53;;;3.33;;
69906;SDS011;57190;47.918;8.112;2023-07-02T02:47:59;4.18;;;3.80;;
69906;SDS011;57190;47.918;8.112;2023-07-02T02:50:25;3.85;;;3.55;;
69906;SDS011;57190;47.918;8.112;2023-07-02T02:52:51;4.18;;;3.88;;
69906;SDS011;57190;47.918;8.112;2023-07-02T02:55:16;4.30;;;4.00;;
69906;SDS011;57190;47.918;8.112;2023-07-02T02:57:42;3.78;;;3.47;;
69906;SDS011;57190;47.918;8.112;2023-07-02T03:00:08;4.63;;;3.65;;
69906;SDS011;57190;47.918;8.112;2023-07-02T03:02:34;4.15;;;3.75;;
69906;SDS011;57190;47.918;8.112;2023-07-02T03:05:01;3.90;;;3.60;;
69906;SDS011;57190;47.918;8.112;2023-07-02T03:07:27;4.13;;;3.83;;
69906;SDS011;57190;47.918;8.112;2023-07-02T03:09:53;3.70;;;3.45;;
69906;SDS011;57190;47.918;8.112;2023-07-02T03:12:19;4.70;;;3.85;;
69906;SDS011;57190;47.918;8.112;2023-07-02T03:14:44;4.53;;;4.13;;
69906;SDS011;57190;47.918;8.112;2023-07-02T03:17:12;5.22;;;3.70;;
69906;SDS011;57190;47.918;8.112;2023-07-02T03:19:38;4.10;;;3.78;;
69906;SDS011;57190;47.918;8.112;2023-07-02T03:22:04;4.65;;;3.80;;
69906;SDS011;57190;47.918;8.112;2023-07-02T03:24:30;4.47;;;3.70;;
69906;SDS011;57190;47.918;8.112;2023-07-02T03:26:56;4.80;;;4.40;;
69906;SDS011;57190;47.918;8.112;2023-07-02T03:29:21;4.55;;;4.15;;
69906;SDS011;57190;47.918;8.112;2023-07-02T03:31:47;4.50;;;4.15;;
69906;SDS011;57190;47.918;8.112;2023-07-02T03:34:13;5.25;;;4.15;;
69906;SDS011;57190;47.918;8.112;2023-07-02T03:36:38;4.68;;;4.28;;
69906;SDS011;57190;47.918;8.112;2023-07-02T03:39:04;5.00;;;4.50;;
69906;SDS011;57190;47.918;8.112;2023-07-02T03:41:30;6.78;;;4.45;;
69906;SDS011;57190;47.918;8.112;2023-07-02T03:43:56;5.85;;;4.53;;
69906;SDS011;57190;47.918;8.112;2023-07-02T03:46:22;4.97;;;4.47;;
69906;SDS011;57190;47.918;8.112;2023-07-02T03:48:48;4.22;;;3.90;;
69906;SDS011;57190;47.918;8.112;2023-07-02T03:51:14;5.90;;;5.40;;
69906;SDS011;57190;47.918;8.112;2023-07-02T03:53:43;5.22;;;4.75;;
69906;SDS011;57190;47.918;8.112;2023-07-02T03:56:09;9.93;;;5.40;;
69906;SDS011;57190;47.918;8.112;2023-07-02T03:58:34;6.35;;;5.00;;
69906;SDS011;57190;47.918;8.112;2023-07-02T04:01:00;5.80;;;5.07;;
69906;SDS011;57190;47.918;8.112;2023-07-02T04:03:26;9.95;;;5.50;;
69906;SDS011;57190;47.918;8.112;2023-07-02T04:05:51;6.03;;;5.53;;
69906;SDS011;57190;47.918;8.112;2023-07-02T04:08:18;5.50;;;5.00;;
69906;SDS011;57190;47.918;8.112;2023-07-02T04:10:46;8.50;;;5.78;;
69906;SDS011;57190;47.918;8.112;2023-07-02T04:13:12;6.70;;;6.05;;
69906;SDS011;57190;47.918;8.112;2023-07-02T04:15:37;8.90;;;7.10;;
69906;SDS011;57190;47.918;8.112;2023-07-02T04:18:03;7.80;;;7.00;;
69906;SDS011;57190;47.918;8.112;2023-07-02T04:20:29;7.93;;;7.03;;
69906;SDS011;57190;47.918;8.112;2023-07-02T04:22:55;9.50;;;7.53;;
69906;SDS011;57190;47.918;8.112;2023-07-02T04:25:21;8.93;;;7.80;;
69906;SDS011;57190;47.918;8.112;2023-07-02T04:27:46;9.68;;;8.68;;
69906;SDS011;57190;47.918;8.112;2023-07-02T04:30:12;10.60;;;9.50;;
69906;SDS011;57190;47.918;8.112;2023-07-02T04:32:39;10.75;;;9.65;;
69906;SDS011;57190;47.918;8.112;2023-07-02T04:35:06;9.73;;;8.82;;
69906;SDS011;57190;47.918;8.112;2023-07-02T04:37:32;11.23;;;9.43;;
69906;SDS011;57190;47.918;8.112;2023-07-02T04:39:58;11.13;;;10.02;;
69906;SDS011;57190;47.918;8.112;2023-07-02T04:42:25;11.90;;;10.23;;
69906;SDS011;57190;47.918;8.112;2023-07-02T04:44:53;10.93;;;9.93;;
69906;SDS011;57190;47.918;8.112;2023-07-02T04:47:19;11.15;;;10.15;;
69906;SDS011;57190;47.918;8.112;2023-07-02T04:49:46;11.85;;;10.75;;
69906;SDS011;57190;47.918;8.112;2023-07-02T04:52:11;13.70;;;10.48;;
69906;SDS011;57190;47.918;8.112;2023-07-02T04:54:39;13.07;;;11.63;;
69906;SDS011;57190;47.918;8.112;2023-07-02T04:57:05;14.30;;;12.90;;
69906;SDS011;57190;47.918;8.112;2023-07-02T04:59:30;18.33;;;12.25;;
69906;SDS011;57190;47.918;8.112;2023-07-02T05:01:56;14.07;;;12.40;;
69906;SDS011;57190;47.918;8.112;2023-07-02T05:04:22;14.80;;;13.18;;
69906;SDS011;57190;47.918;8.112;2023-07-02T05:06:47;15.50;;;13.80;;
69906;SDS011;57190;47.918;8.112;2023-07-02T05:09:13;14.82;;;13.32;;
69906;SDS011;57190;47.918;8.112;2023-07-02T05:11:39;16.05;;;14.35;;
69906;SDS011;57190;47.918;8.112;2023-07-02T05:20:53;16.38;;;14.73;;
69906;SDS011;57190;47.918;8.112;2023-07-02T05:23:19;16.75;;;14.95;;
69906;SDS011;57190;47.918;8.112;2023-07-02T05:25:44;15.88;;;14.27;;
69906;SDS011;57190;47.918;8.112;2023-07-02T05:28:11;17.52;;;15.50;;
69906;SDS011;57190;47.918;8.112;2023-07-02T05:30:36;17.00;;;15.30;;
69906;SDS011;57190;47.918;8.112;2023-07-02T05:33:02;17.33;;;14.23;;
69906;SDS011;57190;47.918;8.112;2023-07-02T05:35:28;16.90;;;15.10;;
69906;SDS011;57190;47.918;8.112;2023-07-02T05:37:53;17.65;;;14.82;;
69906;SDS011;57190;47.918;8.112;2023-07-02T05:40:19;17.00;;;15.20;;
69906;SDS011;57190;47.918;8.112;2023-07-02T05:42:45;18.45;;;16.25;;
69906;SDS011;57190;47.918;8.112;2023-07-02T05:45:10;17.38;;;15.13;;
69906;SDS011;57190;47.918;8.112;2023-07-02T05:47:36;16.92;;;15.18;;
69906;SDS011;57190;47.918;8.112;2023-07-02T05:50:02;17.02;;;15.25;;
69906;SDS011;57190;47.918;8.112;2023-07-02T05:52:28;18.48;;;16.23;;
69906;SDS011;57190;47.918;8.112;2023-07-02T05:54:53;17.55;;;15.23;;
69906;SDS011;57190;47.918;8.112;2023-07-02T05:57:19;18.52;;;16.70;;
69906;SDS011;57190;47.918;8.112;2023-07-02T05:59:45;18.13;;;14.85;;
69906;SDS011;57190;47.918;8.112;2023-07-02T06:02:10;17.17;;;15.27;;
69906;SDS011;57190;47.918;8.112;2023-07-02T06:04:36;18.48;;;16.08;;
69906;SDS011;57190;47.918;8.112;2023-07-02T06:07:02;16.98;;;15.27;;
69906;SDS011;57190;47.918;8.112;2023-07-02T06:09:28;17.08;;;15.18;;
69906;SDS011;57190;47.918;8.112;2023-07-02T06:11:53;18.00;;;16.20;;
69906;SDS011;57190;47.918;8.112;2023-07-02T06:14:19;20.20;;;16.48;;
69906;SDS011;57190;47.918;8.112;2023-07-02T06:16:45;18.33;;;16.48;;
69906;SDS011;57190;47.918;8.112;2023-07-02T06:19:10;17.20;;;15.52;;
69906;SDS011;57190;47.918;8.112;2023-07-02T06:21:36;17.25;;;15.55;;
69906;SDS011;57190;47.918;8.112;2023-07-02T06:24:02;19.13;;;16.90;;
69906;SDS011;57190;47.918;8.112;2023-07-02T06:26:28;18.27;;;16.23;;
69906;SDS011;57190;47.918;8.112;2023-07-02T06:28:54;18.58;;;16.80;;
69906;SDS011;57190;47.918;8.112;2023-07-02T06:31:20;17.17;;;15.43;;
69906;SDS011;57190;47.918;8.112;2023-07-02T06:33:46;18.05;;;16.15;;
69906;SDS011;57190;47.918;8.112;2023-07-02T06:36:12;18.60;;;16.48;;
69906;SDS011;57190;47.918;8.112;2023-07-02T06:38:38;17.73;;;15.77;;
69906;SDS011;57190;47.918;8.112;2023-07-02T06:41:04;18.58;;;16.67;;
69906;SDS011;57190;47.918;8.112;2023-07-02T06:43:30;17.13;;;15.43;;
69906;SDS011;57190;47.918;8.112;2023-07-02T06:45:55;16.95;;;15.15;;
69906;SDS011;57190;47.918;8.112;2023-07-02T06:48:21;18.45;;;16.42;;
69906;SDS011;57190;47.918;8.112;2023-07-02T06:50:47;19.65;;;16.85;;
69906;SDS011;57190;47.918;8.112;2023-07-02T06:53:13;16.77;;;14.98;;
69906;SDS011;57190;47.918;8.112;2023-07-02T06:55:38;17.23;;;15.43;;
69906;SDS011;57190;47.918;8.112;2023-07-02T06:58:05;17.85;;;15.70;;
69906;SDS011;57190;47.918;8.112;2023-07-02T07:00:32;17.05;;;15.35;;
69906;SDS011;57190;47.918;8.112;2023-07-02T07:03:04;19.27;;;16.70;;
69906;SDS011;57190;47.918;8.112;2023-07-02T07:05:30;19.40;;;17.40;;
69906;SDS011;57190;47.918;8.112;2023-07-02T07:07:56;19.80;;;17.67;;
69906;SDS011;57190;47.918;8.112;2023-07-02T07:10:23;17.58;;;15.75;;
69906;SDS011;57190;47.918;8.112;2023-07-02T07:12:48;20.27;;;18.20;;
69906;SDS011;57190;47.918;8.112;2023-07-02T07:15:14;21.23;;;17.90;;
69906;SDS011;57190;47.918;8.112;2023-07-02T07:17:40;19.10;;;17.08;;
69906;SDS011;57190;47.918;8.112;2023-07-02T07:20:06;20.27;;;18.13;;
69906;SDS011;57190;47.918;8.112;2023-07-02T07:22:33;20.83;;;18.83;;
69906;SDS011;57190;47.918;8.112;2023-07-02T07:24:59;20.67;;;18.58;;
69906;SDS011;57190;47.918;8.112;2023-07-02T07:27:24;22.58;;;19.02;;
69906;SDS011;57190;47.918;8.112;2023-07-02T07:29:50;21.13;;;18.92;;
69906;SDS011;57190;47.918;8.112;2023-07-02T07:32:16;21.80;;;19.60;;
69906;SDS011;57190;47.918;8.112;2023-07-02T07:34:42;22.05;;;19.33;;
69906;SDS011;57190;47.918;8.112;2023-07-02T07:37:08;22.45;;;20.10;;
69906;SDS011;57190;47.918;8.112;2023-07-02T07:39:33;23.05;;;20.65;;
69906;SDS011;57190;47.918;8.112;2023-07-02T07:41:59;20.98;;;18.85;;
69906;SDS011;57190;47.918;8.112;2023-07-02T07:44:25;22.52;;;20.30;;
69906;SDS011;57190;47.918;8.112;2023-07-02T07:46:54;22.40;;;19.77;;
69906;SDS011;57190;47.918;8.112;2023-07-02T07:49:21;20.88;;;18.88;;
69906;SDS011;57190;47.918;8.112;2023-07-02T07:51:47;21.70;;;19.40;;
69906;SDS011;57190;47.918;8.112;2023-07-02T07:54:13;22.48;;;20.30;;
69906;SDS011;57190;47.918;8.112;2023-07-02T07:56:39;21.77;;;19.60;;
69906;SDS011;57190;47.918;8.112;2023-07-02T07:59:04;22.13;;;19.83;;
69906;SDS011;57190;47.918;8.112;2023-07-02T08:01:30;23.02;;;20.70;;
69906;SDS011;57190;47.918;8.112;2023-07-02T08:03:56;23.13;;;20.95;;
69906;SDS011;57190;47.918;8.112;2023-07-02T08:06:22;23.23;;;20.95;;
69906;SDS011;57190;47.918;8.112;2023-07-02T08:08:47;20.95;;;18.85;;
69906;SDS011;57190;47.918;8.112;2023-07-02T08:11:13;22.55;;;20.45;;
69906;SDS011;57190;47.918;8.112;2023-07-02T08:13:38;22.35;;;20.15;;
69906;SDS011;57190;47.918;8.112;2023-07-02T08:16:04;22.92;;;20.73;;
69906;SDS011;57190;47.918;8.112;2023-07-02T08:18:30;21.48;;;19.33;;
69906;SDS011;57190;47.918;8.112;2023-07-02T08:20:55;21.85;;;19.75;;
69906;SDS011;57190;47.918;8.112;2023-07-02T08:23:21;21.20;;;19.00;;
69906;SDS011;57190;47.918;8.112;2023-07-02T08:25:47;22.23;;;20.13;;
69906;SDS011;57190;47.918;8.112;2023-07-02T08:28:12;22.17;;;19.77;;
69906;SDS011;57190;47.918;8.112;2023-07-02T08:30:38;20.75;;;18.73;;
69906;SDS011;57190;47.918;8.112;2023-07-02T08:33:03;21.38;;;19.13;;
69906;SDS011;57190;47.918;8.112;2023-07-02T08:35:29;21.92;;;19.70;;
69906;SDS011;57190;47.918;8.112;2023-07-02T08:37:55;20.77;;;18.67;;
69906;SDS011;57190;47.918;8.112;2023-07-02T08:40:21;20.25;;;18.30;;
69906;SDS011;57190;47.918;8.112;2023-07-02T08:42:47;20.05;;;17.70;;
69906;SDS011;57190;47.918;8.112;2023-07-02T08:45:16;19.77;;;17.77;;
69906;SDS011;57190;47.918;8.112;2023-07-02T08:47:43;20.90;;;18.77;;
69906;SDS011;57190;47.918;8.112;2023-07-02T08:50:11;19.23;;;17.42;;
69906;SDS011;57190;47.918;8.112;2023-07-02T08:52:38;20.42;;;17.65;;
69906;SDS011;57190;47.918;8.112;2023-07-02T08:55:04;18.45;;;16.65;;
69906;SDS011;57190;47.918;8.112;2023-07-02T08:57:30;20.55;;;18.27;;
69906;SDS011;57190;47.918;8.112;2023-07-02T08:59:56;19.42;;;17.52;;
69906;SDS011;57190;47.918;8.112;2023-07-02T09:02:33;18.88;;;16.98;;
69906;SDS011;57190;47.918;8.112;2023-07-02T09:05:02;16.65;;;15.05;;
69906;SDS011;57190;47.918;8.112;2023-07-02T09:07:29;18.02;;;16.25;;
69906;SDS011;57190;47.918;8.112;2023-07-02T09:09:55;17.13;;;15.38;;
69906;SDS011;57190;47.918;8.112;2023-07-02T09:12:21;16.67;;;15.07;;
69906;SDS011;57190;47.918;8.112;2023-07-02T09:14:58;17.75;;;16.05;;
69906;SDS011;57190;47.918;8.112;2023-07-02T09:17:35;17.30;;;15.60;;
69906;SDS011;57190;47.918;8.112;2023-07-02T09:20:03;17.77;;;15.98;;
69906;SDS011;57190;47.918;8.112;2023-07-02T09:22:32;17.83;;;15.85;;
69906;SDS011;57190;47.918;8.112;2023-07-02T09:24:58;16.35;;;14.60;;
69906;SDS011;57190;47.918;8.112;2023-07-02T09:27:40;16.98;;;14.73;;
69906;SDS011;57190;47.918;8.112;2023-07-02T09:32:34;15.52;;;14.13;;
69906;SDS011;57190;47.918;8.112;2023-07-02T09:35:00;15.98;;;14.48;;
69906;SDS011;57190;47.918;8.112;2023-07-02T09:37:25;14.70;;;13.30;;
69906;SDS011;57190;47.918;8.112;2023-07-02T09:39:51;15.77;;;14.27;;
69906;SDS011;57190;47.918;8.112;2023-07-02T09:42:20;16.23;;;14.52;;
69906;SDS011;57190;47.918;8.112;2023-07-02T09:44:46;14.88;;;13.48;;
69906;SDS011;57190;47.918;8.112;2023-07-02T09:47:14;14.32;;;13.02;;
69906;SDS011;57190;47.918;8.112;2023-07-02T09:49:52;14.90;;;13.50;;
69906;SDS011;57190;47.918;8.112;2023-07-02T09:52:20;15.63;;;14.07;;
69906;SDS011;57190;47.918;8.112;2023-07-02T09:54:47;14.60;;;13.20;;
69906;SDS011;57190;47.918;8.112;2023-07-02T09:57:12;16.02;;;14.13;;
69906;SDS011;57190;47.918;8.112;2023-07-02T09:59:38;14.85;;;13.35;;
69906;SDS011;57190;47.918;8.112;2023-07-02T10:02:10;15.00;;;13.60;;
69906;SDS011;57190;47.918;8.112;2023-07-02T10:04:42;14.52;;;13.02;;
69906;SDS011;57190;47.918;8.112;2023-07-02T10:07:10;14.27;;;12.98;;
69906;SDS011;57190;47.918;8.112;2023-07-02T10:09:37;13.70;;;12.38;;
69906;SDS011;57190;47.918;8.112;2023-07-02T10:12:21;14.32;;;12.88;;
69906;SDS011;57190;47.918;8.112;2023-07-02T10:14:49;13.05;;;11.75;;
69906;SDS011;57190;47.918;8.112;2023-07-02T10:17:31;14.98;;;12.32;;
69906;SDS011;57190;47.918;8.112;2023-07-02T10:20:00;11.60;;;10.68;;
69906;SDS011;57190;47.918;8.112;2023-07-02T10:22:42;13.07;;;11.77;;
69906;SDS011;57190;47.918;8.112;2023-07-02T10:25:23;14.38;;;12.95;;
69906;SDS011;57190;47.918;8.112;2023-07-02T10:27:52;12.60;;;11.48;;
69906;SDS011;57190;47.918;8.112;2023-07-02T10:30:18;12.63;;;11.32;;
69906;SDS011;57190;47.918;8.112;2023-07-02T10:32:43;14.52;;;13.07;;
69906;SDS011;57190;47.918;8.112;2023-07-02T10:37:39;15.15;;;13.70;;
69906;SDS011;57190;47.918;8.112;2023-07-02T10:40:08;13.23;;;11.82;;
69906;SDS011;57190;47.918;8.112;2023-07-02T10:49:29;10.52;;;9.63;;
69906;SDS011;57190;47.918;8.112;2023-07-02T10:52:02;10.90;;;9.90;;
69906;SDS011;57190;47.918;8.112;2023-07-02T10:54:39;10.88;;;9.95;;
69906;SDS011;57190;47.918;8.112;2023-07-02T10:57:08;11.43;;;10.35;;
69906;SDS011;57190;47.918;8.112;2023-07-02T10:59:35;10.15;;;9.25;;
69906;SDS011;57190;47.918;8.112;2023-07-02T11:02:01;9.88;;;8.88;;
69906;SDS011;57190;47.918;8.112;2023-07-02T11:04:31;9.63;;;8.80;;
69906;SDS011;57190;47.918;8.112;2023-07-02T11:06:58;10.73;;;9.63;;
69906;SDS011;57190;47.918;8.112;2023-07-02T11:09:24;10.43;;;9.45;;
69906;SDS011;57190;47.918;8.112;2023-07-02T11:11:51;9.52;;;8.68;;
69906;SDS011;57190;47.918;8.112;2023-07-02T11:14:30;9.32;;;8.45;;
69906;SDS011;57190;47.918;8.112;2023-07-02T11:17:02;9.60;;;8.75;;
69906;SDS011;57190;47.918;8.112;2023-07-02T11:19:30;9.57;;;8.60;;
69906;SDS011;57190;47.918;8.112;2023-07-02T11:22:00;10.80;;;9.80;;
69906;SDS011;57190;47.918;8.112;2023-07-02T11:24:34;9.43;;;8.63;;
69906;SDS011;57190;47.918;8.112;2023-07-02T11:27:02;9.10;;;8.30;;
69906;SDS011;57190;47.918;8.112;2023-07-02T11:29:30;9.00;;;8.10;;
69906;SDS011;57190;47.918;8.112;2023-07-02T11:32:09;9.25;;;8.35;;
69906;SDS011;57190;47.918;8.112;2023-07-02T11:34:36;9.60;;;8.70;;
69906;SDS011;57190;47.918;8.112;2023-07-02T11:37:03;8.80;;;7.90;;
69906;SDS011;57190;47.918;8.112;2023-07-02T11:39:29;9.02;;;8.23;;
69906;SDS011;57190;47.918;8.112;2023-07-02T11:41:55;8.52;;;7.72;;
69906;SDS011;57190;47.918;8.112;2023-07-02T11:44:21;8.93;;;8.13;;
69906;SDS011;57190;47.918;8.112;2023-07-02T11:46:47;10.07;;;9.07;;
69906;SDS011;57190;47.918;8.112;2023-07-02T11:49:13;9.13;;;8.23;;
69906;SDS011;57190;47.918;8.112;2023-07-02T11:51:39;8.80;;;8.00;;
69906;SDS011;57190;47.918;8.112;2023-07-02T11:54:05;9.57;;;8.68;;
69906;SDS011;57190;47.918;8.112;2023-07-02T11:56:31;8.80;;;8.05;;
69906;SDS011;57190;47.918;8.112;2023-07-02T11:58:57;9.30;;;8.50;;
69906;SDS011;57190;47.918;8.112;2023-07-02T12:01:24;9.32;;;8.48;;
69906;SDS011;57190;47.918;8.112;2023-07-02T12:03:50;9.88;;;8.90;;
69906;SDS011;57190;47.918;8.112;2023-07-02T12:06:16;9.38;;;8.57;;
69906;SDS011;57190;47.918;8.112;2023-07-02T12:08:42;9.93;;;8.93;;
69906;SDS011;57190;47.918;8.112;2023-07-02T12:11:08;9.93;;;9.05;;
69906;SDS011;57190;47.918;8.112;2023-07-02T12:13:34;10.32;;;9.38;;
69906;SDS011;57190;47.918;8.112;2023-07-02T12:16:00;9.68;;;8.75;;
69906;SDS011;57190;47.918;8.112;2023-07-02T12:18:26;9.88;;;9.02;;
69906;SDS011;57190;47.918;8.112;2023-07-02T12:20:52;10.18;;;9.27;;
69906;SDS011;57190;47.918;8.112;2023-07-02T12:23:17;11.02;;;9.95;;
69906;SDS011;57190;47.918;8.112;2023-07-02T12:25:43;9.50;;;8.70;;
69906;SDS011;57190;47.918;8.112;2023-07-02T12:28:09;9.70;;;8.85;;
69906;SDS011;57190;47.918;8.112;2023-07-02T12:30:34;9.48;;;8.57;;
69906;SDS011;57190;47.918;8.112;2023-07-02T12:33:00;10.63;;;9.52;;
69906;SDS011;57190;47.918;8.112;2023-07-02T12:35:25;9.57;;;8.60;;
69906;SDS011;57190;47.918;8.112;2023-07-02T12:37:51;9.95;;;9.02;;
69906;SDS011;57190;47.918;8.112;2023-07-02T12:40:18;9.98;;;9.07;;
69906;SDS011;57190;47.918;8.112;2023-07-02T12:42:45;9.40;;;8.60;;
69906;SDS011;57190;47.918;8.112;2023-07-02T12:45:12;9.32;;;8.48;;
69906;SDS011;57190;47.918;8.112;2023-07-02T12:47:39;10.25;;;9.18;;
69906;SDS011;57190;47.918;8.112;2023-07-02T12:50:06;8.90;;;8.18;;
69906;SDS011;57190;47.918;8.112;2023-07-02T12:52:32;8.63;;;7.78;;
69906;SDS011;57190;47.918;8.112;2023-07-02T12:54:58;8.60;;;7.30;;
69906;SDS011;57190;47.918;8.112;2023-07-02T12:57:24;8.32;;;7.68;;
69906;SDS011;57190;47.918;8.112;2023-07-02T12:59:52;8.18;;;7.43;;
69906;SDS011;57190;47.918;8.112;2023-07-02T13:02:18;8.45;;;7.65;;
69906;SDS011;57190;47.918;8.112;2023-07-02T13:04:44;7.47;;;6.80;;
69906;SDS011;57190;47.918;8.112;2023-07-02T13:07:10;7.35;;;6.75;;
69906;SDS011;57190;47.918;8.112;2023-07-02T13:09:35;7.70;;;7.10;;
69906;SDS011;57190;47.918;8.112;2023-07-02T13:12:01;7.40;;;6.80;;
69906;SDS011;57190;47.918;8.112;2023-07-02T13:14:27;7.65;;;6.95;;
69906;SDS011;57190;47.918;8.112;2023-07-02T13:16:53;8.65;;;7.95;;
69906;SDS011;57190;47.918;8.112;2023-07-02T13:19:19;7.13;;;6.63;;
69906;SDS011;57190;47.918;8.112;2023-07-02T13:21:44;7.07;;;6.50;;
69906;SDS011;57190;47.918;8.112;2023-07-02T13:24:10;7.88;;;7.15;;
69906;SDS011;57190;47.918;8.112;2023-07-02T13:26:37;7.40;;;6.80;;
69906;SDS011;57190;47.918;8.112;2023-07-02T13:29:03;8.07;;;7.38;;
69906;SDS011;57190;47.918;8.112;2023-07-02T13:31:29;9.05;;;8.25;;
69906;SDS011;57190;47.918;8.112;2023-07-02T13:33:54;9.07;;;8.38;;
69906;SDS011;57190;47.918;8.112;2023-07-02T13:36:20;9.27;;;8.38;;
69906;SDS011;57190;47.918;8.112;2023-07-02T13:38:45;9.00;;;8.30;;
69906;SDS011;57190;47.918;8.112;2023-07-02T13:41:11;9.77;;;8.98;;
69906;SDS011;57190;47.918;8.112;2023-07-02T13:43:37;9.80;;;9.00;;
69906;SDS011;57190;47.918;8.112;2023-07-02T13:46:03;11.85;;;10.85;;
69906;SDS011;57190;47.918;8.112;2023-07-02T13:48:29;12.77;;;11.63;;
69906;SDS011;57190;47.918;8.112;2023-07-02T13:50:54;14.00;;;12.65;;
69906;SDS011;57190;47.918;8.112;2023-07-02T13:53:20;13.88;;;12.68;;
69906;SDS011;57190;47.918;8.112;2023-07-02T13:55:46;16.13;;;14.73;;
69906;SDS011;57190;47.918;8.112;2023-07-02T13:58:12;15.13;;;13.85;;
69906;SDS011;57190;47.918;8.112;2023-07-02T14:00:37;17.35;;;15.75;;
69906;SDS011;57190;47.918;8.112;2023-07-02T14:03:03;17.42;;;15.93;;
69906;SDS011;57190;47.918;8.112;2023-07-02T14:05:31;17.88;;;16.25;;
69906;SDS011;57190;47.918;8.112;2023-07-02T14:07:57;18.13;;;16.52;;
69906;SDS011;57190;47.918;8.112;2023-07-02T14:10:23;17.67;;;16.10;;
69906;SDS011;57190;47.918;8.112;2023-07-02T14:12:49;17.65;;;16.15;;
69906;SDS011;57190;47.918;8.112;2023-07-02T14:15:14;16.90;;;15.50;;
69906;SDS011;57190;47.918;8.112;2023-07-02T14:17:40;17.55;;;15.90;;
69906;SDS011;57190;47.918;8.112;2023-07-02T14:20:07;16.58;;;15.10;;
69906;SDS011;57190;47.918;8.112;2023-07-02T14:22:33;17.15;;;15.65;;
69906;SDS011;57190;47.918;8.112;2023-07-02T14:24:59;17.95;;;16.35;;
69906;SDS011;57190;47.918;8.112;2023-07-02T14:27:25;16.23;;;14.80;;
69906;SDS011;57190;47.918;8.112;2023-07-02T14:29:51;16.08;;;14.63;;
69906;SDS011;57190;47.918;8.112;2023-07-02T14:32:16;17.48;;;15.68;;
69906;SDS011;57190;47.918;8.112;2023-07-02T14:34:43;15.73;;;14.43;;
69906;SDS011;57190;47.918;8.112;2023-07-02T14:37:09;16.38;;;14.98;;
69906;SDS011;57190;47.918;8.112;2023-07-02T14:39:35;16.58;;;15.02;;
69906;SDS011;57190;47.918;8.112;2023-07-02T14:42:00;16.65;;;15.15;;
69906;SDS011;57190;47.918;8.112;2023-07-02T14:44:26;17.15;;;15.50;;
69906;SDS011;57190;47.918;8.112;2023-07-02T14:46:52;15.60;;;13.95;;
69906;SDS011;57190;47.918;8.112;2023-07-02T14:49:18;16.83;;;15.30;;